createdAt,value
2017-08-25T00:00:39.991Z,25.15
2017-08-25T00:01:20.448Z,25.24
2017-08-25T00:02:00.895Z,25.25
2017-08-25T00:02:41.357Z,25.25
2017-08-25T00:03:21.806Z,25.3
2017-08-25T00:04:02.257Z,25.29
2017-08-25T00:05:39.695Z,25.26
2017-08-25T00:06:20.199Z,25.31
2017-08-25T00:07:00.669Z,25.29
2017-08-25T00:07:41.110Z,25.15
2017-08-25T00:08:21.564Z,25.21
2017-08-25T00:09:02.014Z,25.26
2017-08-25T00:09:42.474Z,25.25
2017-08-25T00:10:22.910Z,25.21
2017-08-25T00:11:03.369Z,25.22
2017-08-25T00:11:43.821Z,25.15
2017-08-25T00:12:24.279Z,25.16
2017-08-25T00:13:04.734Z,25.19
2017-08-25T00:13:45.188Z,25.16
2017-08-25T00:14:25.641Z,25.12
2017-08-25T00:15:06.091Z,25.24
2017-08-25T00:15:46.552Z,25.18
2017-08-25T00:16:27.005Z,25.14
2017-08-25T00:17:07.458Z,25.22
2017-08-25T00:17:47.922Z,25.18
2017-08-25T00:18:28.391Z,25.18
2017-08-25T00:19:08.846Z,25.21
2017-08-25T00:19:49.301Z,25.22
2017-08-25T00:20:29.752Z,25.18
2017-08-25T00:21:10.207Z,25.21
2017-08-25T00:21:50.654Z,25.25
2017-08-25T00:22:31.109Z,25.14
2017-08-25T00:23:11.569Z,25.24
2017-08-25T00:23:52.016Z,25.18
2017-08-25T00:24:32.471Z,25.24
2017-08-25T00:25:12.929Z,25.18
2017-08-25T00:25:53.386Z,25.25
2017-08-25T00:26:33.833Z,25.22
2017-08-25T00:27:14.280Z,25.22
2017-08-25T00:27:54.739Z,25.24
2017-08-25T00:28:35.194Z,25.19
2017-08-25T00:29:15.642Z,25.19
2017-08-25T00:29:56.096Z,25.18
2017-08-25T00:30:36.554Z,25.19
2017-08-25T00:31:17.010Z,25.18
2017-08-25T00:31:57.457Z,25.22
2017-08-25T00:32:37.911Z,25.24
2017-08-25T00:33:18.369Z,25.19
2017-08-25T00:33:58.828Z,25.21
2017-08-25T00:34:39.278Z,25.18
2017-08-25T00:35:19.730Z,25.25
2017-08-25T00:36:00.182Z,25.24
2017-08-25T00:36:40.634Z,25.19
2017-08-25T00:37:21.092Z,25.24
2017-08-25T00:38:01.542Z,25.19
2017-08-25T00:38:42.001Z,25.16
2017-08-25T00:39:22.457Z,25.18
2017-08-25T00:40:02.906Z,25.15
2017-08-25T00:40:43.372Z,25.16
2017-08-25T00:41:23.830Z,25.16
2017-08-25T00:42:04.284Z,25.24
2017-08-25T00:42:44.735Z,25.16
2017-08-25T00:43:25.212Z,25.22
2017-08-25T00:44:05.665Z,25.19
2017-08-25T00:44:46.115Z,25.15
2017-08-25T00:45:26.566Z,25.19
2017-08-25T00:46:07.031Z,25.3
2017-08-25T00:46:47.478Z,25.3
2017-08-25T00:47:27.937Z,25.18
2017-08-25T00:48:08.389Z,25.21
2017-08-25T00:48:48.853Z,25.24
2017-08-25T00:49:29.300Z,25.21
2017-08-25T00:50:09.761Z,25.18
2017-08-25T00:50:50.214Z,25.18
2017-08-25T00:51:30.671Z,25.21
2017-08-25T00:52:11.130Z,25.21
2017-08-25T00:52:51.598Z,25.25
2017-08-25T00:53:32.048Z,25.18
2017-08-25T00:54:12.509Z,25.3
2017-08-25T00:54:52.948Z,25.18
2017-08-25T00:55:33.407Z,25.14
2017-08-25T00:56:13.863Z,25.22
2017-08-25T00:56:54.314Z,25.25
2017-08-25T00:57:34.759Z,25.25
2017-08-25T00:58:15.209Z,25.21
2017-08-25T00:58:55.657Z,25.24
2017-08-25T00:59:36.153Z,25.12
2017-08-25T01:00:16.609Z,25.14
2017-08-25T01:00:57.070Z,25.22
2017-08-25T01:01:37.521Z,25.22
2017-08-25T01:02:17.948Z,25.16
2017-08-25T01:02:58.402Z,25.18
2017-08-25T01:03:38.834Z,25.18
2017-08-25T01:04:19.293Z,25.18
2017-08-25T01:04:59.750Z,25.11
2017-08-25T01:05:40.207Z,25.12
2017-08-25T01:06:20.664Z,25.22
2017-08-25T01:07:01.112Z,25.16
2017-08-25T01:07:41.567Z,25.16
2017-08-25T01:08:22.026Z,25.19
2017-08-25T01:09:02.479Z,25.15
2017-08-25T01:09:42.921Z,25.16
2017-08-25T01:10:23.379Z,25.11
2017-08-25T01:11:03.833Z,25.09
2017-08-25T01:11:44.284Z,25.15
2017-08-25T01:12:24.742Z,25.18
2017-08-25T01:13:05.200Z,25.07
2017-08-25T01:13:45.660Z,25.16
2017-08-25T01:14:26.115Z,25.07
2017-08-25T01:15:06.571Z,25.18
2017-08-25T01:15:47.032Z,25.07
2017-08-25T01:16:27.486Z,25.14
2017-08-25T01:17:07.947Z,25.03
2017-08-25T01:17:48.396Z,25.15
2017-08-25T01:18:28.862Z,25.09
2017-08-25T01:19:09.319Z,25.15
2017-08-25T01:19:49.774Z,25.04
2017-08-25T01:20:30.230Z,25.09
2017-08-25T01:21:10.689Z,25.14
2017-08-25T01:21:51.147Z,25.11
2017-08-25T01:22:31.610Z,25.04
2017-08-25T01:23:12.066Z,25.09
2017-08-25T01:23:52.522Z,25.12
2017-08-25T01:24:32.978Z,25.14
2017-08-25T01:25:13.427Z,25.14
2017-08-25T01:25:53.887Z,25.04
2017-08-25T01:26:34.348Z,25.09
2017-08-25T01:27:14.813Z,25.01
2017-08-25T01:27:55.274Z,25.11
2017-08-25T01:28:35.736Z,25
2017-08-25T01:29:16.189Z,25.11
2017-08-25T01:29:56.646Z,25.03
2017-08-25T01:30:37.100Z,25.11
2017-08-25T01:31:17.557Z,25.12
2017-08-25T01:31:58.031Z,25.07
2017-08-25T01:32:38.463Z,24.99
2017-08-25T01:33:18.923Z,25.12
2017-08-25T01:33:59.358Z,25.12
2017-08-25T01:34:39.812Z,25.04
2017-08-25T01:35:20.341Z,25.04
2017-08-25T01:36:00.801Z,25.03
2017-08-25T01:36:41.253Z,25.04
2017-08-25T01:37:21.698Z,25.03
2017-08-25T01:38:02.154Z,25.01
2017-08-25T01:38:42.608Z,25.03
2017-08-25T01:39:23.055Z,25.03
2017-08-25T01:40:03.505Z,25.04
2017-08-25T01:40:43.960Z,25.01
2017-08-25T01:41:24.415Z,25.04
2017-08-25T01:42:04.862Z,25.01
2017-08-25T01:42:45.307Z,25
2017-08-25T01:43:25.757Z,25
2017-08-25T01:44:06.216Z,25.01
2017-08-25T01:44:46.664Z,25.06
2017-08-25T01:45:27.124Z,25
2017-08-25T01:46:07.578Z,25.09
2017-08-25T01:46:48.033Z,25.04
2017-08-25T01:47:28.493Z,24.97
2017-08-25T01:48:08.951Z,25.06
2017-08-25T01:48:49.407Z,25
2017-08-25T01:49:29.894Z,25.09
2017-08-25T01:50:10.351Z,24.99
2017-08-25T01:50:50.807Z,25.04
2017-08-25T01:51:31.273Z,25.06
2017-08-25T01:53:09.130Z,25.04
2017-08-25T01:53:49.587Z,25.01
2017-08-25T01:54:30.037Z,25.09
2017-08-25T01:55:10.486Z,25
2017-08-25T01:55:50.940Z,25.04
2017-08-25T01:56:31.387Z,25.09
2017-08-25T01:57:11.839Z,25.03
2017-08-25T01:57:52.297Z,25.07
2017-08-25T01:58:32.759Z,25.11
2017-08-25T01:59:13.216Z,25.04
2017-08-25T01:59:53.670Z,24.99
2017-08-25T02:00:34.120Z,25.01
2017-08-25T02:01:14.587Z,25.06
2017-08-25T02:01:55.094Z,24.99
2017-08-25T02:02:35.553Z,25.07
2017-08-25T02:03:15.998Z,25
2017-08-25T02:03:56.452Z,24.97
2017-08-25T02:04:36.907Z,24.99
2017-08-25T02:05:17.367Z,25.09
2017-08-25T02:05:57.824Z,25
2017-08-25T02:06:38.280Z,25.04
2017-08-25T02:07:18.732Z,25.01
2017-08-25T02:07:59.189Z,24.96
2017-08-25T02:08:39.639Z,25.07
2017-08-25T02:09:20.088Z,25.11
2017-08-25T02:10:00.540Z,25.04
2017-08-25T02:10:41.000Z,25.03
2017-08-25T02:11:21.451Z,25.01
2017-08-25T02:12:01.906Z,25.04
2017-08-25T02:12:42.367Z,25.11
2017-08-25T02:13:22.829Z,24.97
2017-08-25T02:14:03.274Z,24.94
2017-08-25T02:14:43.729Z,24.99
2017-08-25T02:15:24.184Z,25.06
2017-08-25T02:16:04.646Z,24.96
2017-08-25T02:16:45.102Z,24.97
2017-08-25T02:17:25.556Z,24.97
2017-08-25T02:18:06.010Z,24.99
2017-08-25T02:18:46.468Z,24.97
2017-08-25T02:19:26.928Z,24.99
2017-08-25T02:20:07.376Z,25
2017-08-25T02:20:47.833Z,24.99
2017-08-25T02:21:28.282Z,25
2017-08-25T02:22:08.758Z,25.11
2017-08-25T02:22:49.186Z,24.93
2017-08-25T02:23:29.641Z,24.96
2017-08-25T02:24:10.095Z,25.04
2017-08-25T02:24:50.546Z,25.01
2017-08-25T02:25:31.002Z,24.96
2017-08-25T02:26:11.461Z,24.96
2017-08-25T02:26:51.903Z,24.96
2017-08-25T02:27:32.359Z,25.01
2017-08-25T02:28:12.811Z,24.96
2017-08-25T02:28:53.267Z,24.94
2017-08-25T02:29:33.724Z,24.96
2017-08-25T02:30:14.166Z,24.99
2017-08-25T02:30:54.623Z,24.94
2017-08-25T02:31:35.088Z,24.99
2017-08-25T02:32:15.540Z,24.99
2017-08-25T02:32:55.996Z,24.94
2017-08-25T02:33:36.450Z,24.93
2017-08-25T02:34:16.902Z,24.99
2017-08-25T02:34:57.368Z,24.97
2017-08-25T02:35:37.818Z,24.94
2017-08-25T02:36:18.272Z,24.97
2017-08-25T02:36:58.728Z,24.96
2017-08-25T02:37:39.186Z,25
2017-08-25T02:38:19.639Z,24.99
2017-08-25T02:39:00.095Z,25.01
2017-08-25T02:39:40.545Z,25
2017-08-25T02:40:21.016Z,24.99
2017-08-25T02:41:01.447Z,24.93
2017-08-25T02:41:41.914Z,24.96
2017-08-25T02:42:22.366Z,24.99
2017-08-25T02:43:02.820Z,24.93
2017-08-25T02:43:43.275Z,24.96
2017-08-25T02:44:23.728Z,24.97
2017-08-25T02:45:04.196Z,24.93
2017-08-25T02:45:44.648Z,24.96
2017-08-25T02:46:25.099Z,24.94
2017-08-25T02:47:05.561Z,24.99
2017-08-25T02:47:46.013Z,24.96
2017-08-25T02:48:26.459Z,24.97
2017-08-25T02:49:06.914Z,25.01
2017-08-25T02:49:47.363Z,24.99
2017-08-25T02:50:27.856Z,24.97
2017-08-25T02:51:08.302Z,24.96
2017-08-25T02:51:48.757Z,24.97
2017-08-25T02:52:29.210Z,24.97
2017-08-25T02:53:09.670Z,24.96
2017-08-25T02:53:50.119Z,25.07
2017-08-25T02:55:37.682Z,24.96
2017-08-25T02:56:18.132Z,24.97
2017-08-25T02:56:58.589Z,24.99
2017-08-25T02:57:39.037Z,24.94
2017-08-25T02:58:19.494Z,24.94
2017-08-25T02:58:59.954Z,24.99
2017-08-25T02:59:40.407Z,24.99
2017-08-25T03:00:20.862Z,24.97
2017-08-25T03:01:01.337Z,24.99
2017-08-25T03:01:41.791Z,24.99
2017-08-25T03:02:22.241Z,24.96
2017-08-25T03:03:02.697Z,24.94
2017-08-25T03:03:43.150Z,24.99
2017-08-25T03:04:23.601Z,24.94
2017-08-25T03:05:04.070Z,24.99
2017-08-25T03:05:44.505Z,24.94
2017-08-25T03:06:24.961Z,24.94
2017-08-25T03:07:05.414Z,24.99
2017-08-25T03:07:45.869Z,24.94
2017-08-25T03:08:26.321Z,24.92
2017-08-25T03:09:06.780Z,24.99
2017-08-25T03:09:47.227Z,24.97
2017-08-25T03:10:27.679Z,24.96
2017-08-25T03:11:08.120Z,24.85
2017-08-25T03:11:48.576Z,24.99
2017-08-25T03:12:29.033Z,24.97
2017-08-25T03:13:09.488Z,25
2017-08-25T03:13:49.947Z,24.88
2017-08-25T03:14:30.421Z,24.96
2017-08-25T03:15:10.889Z,24.94
2017-08-25T03:15:51.329Z,24.96
2017-08-25T03:16:31.769Z,24.97
2017-08-25T03:17:12.224Z,24.97
2017-08-25T03:17:52.670Z,25.01
2017-08-25T03:18:33.116Z,24.96
2017-08-25T03:19:13.556Z,25.03
2017-08-25T03:19:54.020Z,24.94
2017-08-25T03:20:34.460Z,24.97
2017-08-25T03:21:14.923Z,24.86
2017-08-25T03:21:55.373Z,24.89
2017-08-25T03:22:35.820Z,24.86
2017-08-25T03:23:16.275Z,24.86
2017-08-25T03:23:56.730Z,24.93
2017-08-25T03:24:37.191Z,24.84
2017-08-25T03:25:17.639Z,24.84
2017-08-25T03:25:58.086Z,24.94
2017-08-25T03:26:38.540Z,24.88
2017-08-25T03:27:18.988Z,24.81
2017-08-25T03:27:59.446Z,24.89
2017-08-25T03:28:39.906Z,24.89
2017-08-25T03:29:20.358Z,24.94
2017-08-25T03:30:00.810Z,24.88
2017-08-25T03:30:41.275Z,24.89
2017-08-25T03:31:21.726Z,24.82
2017-08-25T03:32:02.181Z,24.88
2017-08-25T03:32:42.631Z,24.84
2017-08-25T03:33:23.088Z,24.92
2017-08-25T03:34:03.547Z,24.89
2017-08-25T03:34:44.009Z,24.84
2017-08-25T03:35:24.465Z,24.84
2017-08-25T03:36:04.923Z,24.93
2017-08-25T03:36:45.386Z,24.92
2017-08-25T03:37:25.835Z,24.92
2017-08-25T03:38:06.290Z,24.88
2017-08-25T03:38:46.760Z,24.84
2017-08-25T03:39:27.214Z,24.81
2017-08-25T03:40:07.672Z,24.81
2017-08-25T03:40:48.129Z,24.86
2017-08-25T03:41:28.604Z,24.82
2017-08-25T03:42:09.062Z,24.81
2017-08-25T03:42:49.515Z,24.89
2017-08-25T03:43:29.968Z,24.88
2017-08-25T03:44:10.440Z,24.96
2017-08-25T03:44:50.893Z,24.88
2017-08-25T03:45:31.350Z,24.94
2017-08-25T03:46:11.804Z,24.93
2017-08-25T03:46:52.252Z,24.85
2017-08-25T03:47:32.729Z,24.94
2017-08-25T03:48:13.166Z,25.03
2017-08-25T03:48:53.628Z,24.97
2017-08-25T03:49:34.082Z,24.92
2017-08-25T03:50:14.534Z,24.97
2017-08-25T03:50:54.986Z,24.96
2017-08-25T03:51:35.439Z,24.96
2017-08-25T03:52:15.894Z,25
2017-08-25T03:52:56.349Z,24.99
2017-08-25T03:53:36.806Z,24.96
2017-08-25T03:54:17.249Z,25
2017-08-25T03:54:57.687Z,25.01
2017-08-25T03:55:38.141Z,24.96
2017-08-25T03:56:18.599Z,24.97
2017-08-25T03:56:59.052Z,24.99
2017-08-25T03:57:39.505Z,24.96
2017-08-25T03:58:19.954Z,24.96
2017-08-25T03:59:00.453Z,24.94
2017-08-25T03:59:40.905Z,24.96
2017-08-25T04:00:21.338Z,24.96
2017-08-25T04:01:01.804Z,25
2017-08-25T04:01:42.292Z,25.11
2017-08-25T04:03:19.784Z,24.99
2017-08-25T04:04:00.244Z,25.09
2017-08-25T04:04:40.690Z,25
2017-08-25T04:05:21.157Z,25.01
2017-08-25T04:06:01.615Z,25.04
2017-08-25T04:06:42.075Z,25.15
2017-08-25T04:07:22.568Z,25.15
2017-08-25T04:08:03.017Z,25.04
2017-08-25T04:08:43.465Z,25.12
2017-08-25T04:09:23.921Z,25.15
2017-08-25T04:10:04.340Z,25.16
2017-08-25T04:10:44.771Z,25.25
2017-08-25T04:11:25.192Z,25.22
2017-08-25T04:12:05.641Z,25.24
2017-08-25T04:12:46.054Z,25.22
2017-08-25T04:13:26.459Z,25.26
2017-08-25T04:14:06.886Z,25.21
2017-08-25T04:14:47.286Z,25.24
2017-08-25T04:15:27.680Z,25.26
2017-08-25T04:16:08.104Z,25.25
2017-08-25T04:16:48.510Z,25.22
2017-08-25T04:17:28.925Z,25.19
2017-08-25T04:18:09.354Z,25.18
2017-08-25T04:18:49.745Z,25.24
2017-08-25T04:19:30.174Z,25.25
2017-08-25T04:20:10.594Z,25.19
2017-08-25T04:20:51.017Z,25.11
2017-08-25T04:21:31.450Z,25.25
2017-08-25T04:22:11.905Z,25.19
2017-08-25T04:22:52.350Z,25.3
2017-08-25T04:23:32.802Z,25.19
2017-08-25T04:24:13.251Z,25.14
2017-08-25T04:24:53.713Z,25.24
2017-08-25T04:25:34.171Z,25.22
2017-08-25T04:26:14.621Z,25.21
2017-08-25T04:26:55.066Z,25.22
2017-08-25T04:27:35.505Z,25.29
2017-08-25T04:28:15.955Z,25.18
2017-08-25T04:28:56.407Z,25.22
2017-08-25T04:29:36.853Z,25.24
2017-08-25T04:30:17.305Z,25.26
2017-08-25T04:30:57.764Z,25.21
2017-08-25T04:31:38.225Z,25.33
2017-08-25T04:32:18.726Z,25.31
2017-08-25T04:32:59.182Z,25.21
2017-08-25T04:33:39.641Z,25.25
2017-08-25T04:34:20.101Z,25.24
2017-08-25T04:35:00.555Z,25.33
2017-08-25T04:35:41.006Z,25.3
2017-08-25T04:36:21.455Z,25.26
2017-08-25T04:37:01.920Z,25.31
2017-08-25T04:37:42.371Z,25.29
2017-08-25T04:38:22.838Z,25.26
2017-08-25T04:39:03.287Z,25.25
2017-08-25T04:39:43.771Z,25.33
2017-08-25T04:40:24.218Z,25.26
2017-08-25T04:41:04.674Z,25.21
2017-08-25T04:41:45.149Z,25.19
2017-08-25T04:42:25.607Z,25.25
2017-08-25T04:43:06.069Z,25.22
2017-08-25T04:43:46.537Z,25.18
2017-08-25T04:44:26.984Z,25.26
2017-08-25T04:45:07.434Z,25.19
2017-08-25T04:45:47.893Z,25.19
2017-08-25T04:46:28.350Z,25.16
2017-08-25T04:47:08.804Z,25.24
2017-08-25T04:47:49.258Z,25.22
2017-08-25T04:48:29.861Z,25.21
2017-08-25T04:49:10.368Z,25.24
2017-08-25T04:49:50.985Z,25.18
2017-08-25T04:50:31.433Z,25.14
2017-08-25T04:51:11.886Z,25.24
2017-08-25T04:51:52.356Z,25.21
2017-08-25T04:53:39.836Z,25.15
2017-08-25T04:54:20.276Z,25.12
2017-08-25T04:55:00.723Z,25.12
2017-08-25T04:55:41.189Z,25.11
2017-08-25T04:56:21.645Z,25.16
2017-08-25T04:57:02.118Z,25.14
2017-08-25T04:57:42.561Z,25.18
2017-08-25T04:58:23.025Z,25.14
2017-08-25T04:59:03.488Z,25.16
2017-08-25T04:59:43.948Z,25.14
2017-08-25T05:00:24.401Z,25.19
2017-08-25T05:01:04.853Z,25.15
2017-08-25T05:01:45.313Z,25.15
2017-08-25T05:02:25.769Z,25.16
2017-08-25T05:03:06.215Z,25.18
2017-08-25T05:03:46.678Z,25.15
2017-08-25T05:04:27.125Z,25.21
2017-08-25T05:05:07.581Z,25.21
2017-08-25T05:05:48.039Z,25.12
2017-08-25T05:06:28.499Z,25.22
2017-08-25T05:08:26.158Z,25.25
2017-08-25T05:09:06.603Z,25.22
2017-08-25T05:09:47.066Z,25.12
2017-08-25T05:10:27.514Z,25.16
2017-08-25T05:11:07.971Z,25.18
2017-08-25T05:11:48.422Z,25.12
2017-08-25T05:12:28.881Z,25.16
2017-08-25T05:13:09.326Z,25.12
2017-08-25T05:13:49.779Z,25.14
2017-08-25T05:14:30.232Z,25.16
2017-08-25T05:15:10.679Z,25.12
2017-08-25T05:15:51.135Z,25.18
2017-08-25T05:16:33.369Z,25.12
2017-08-25T05:17:13.847Z,25.21
2017-08-25T05:17:54.301Z,25.15
2017-08-25T05:18:34.758Z,25.19
2017-08-25T05:19:15.215Z,25.16
2017-08-25T05:19:55.671Z,25.14
2017-08-25T05:20:36.117Z,25.16
2017-08-25T05:21:16.584Z,25.19
2017-08-25T05:21:57.031Z,25.07
2017-08-25T05:22:37.479Z,25.15
2017-08-25T05:23:17.930Z,25.11
2017-08-25T05:23:58.379Z,25.14
2017-08-25T05:24:38.834Z,25.14
2017-08-25T05:25:19.297Z,25.11
2017-08-25T05:25:59.749Z,25.09
2017-08-25T05:26:40.242Z,25.04
2017-08-25T05:27:20.705Z,25.09
2017-08-25T05:28:01.163Z,25.07
2017-08-25T05:28:41.620Z,25.01
2017-08-25T05:29:22.071Z,25.03
2017-08-25T05:30:02.526Z,25.04
2017-08-25T05:30:42.981Z,25.03
2017-08-25T05:31:23.435Z,25.03
2017-08-25T05:32:03.887Z,25.09
2017-08-25T05:32:44.330Z,25.01
2017-08-25T05:33:24.785Z,25.11
2017-08-25T05:34:05.244Z,25.01
2017-08-25T05:34:45.698Z,25.01
2017-08-25T05:35:26.154Z,25.03
2017-08-25T05:36:06.618Z,25.16
2017-08-25T05:36:47.070Z,25.06
2017-08-25T05:37:27.523Z,25.01
2017-08-25T05:38:07.973Z,25.07
2017-08-25T05:38:48.428Z,24.99
2017-08-25T05:39:28.883Z,25.11
2017-08-25T05:40:09.333Z,25.04
2017-08-25T05:40:49.791Z,25
2017-08-25T05:41:30.246Z,25.09
2017-08-25T05:42:10.706Z,25.03
2017-08-25T05:42:51.159Z,25.11
2017-08-25T05:43:31.620Z,25.04
2017-08-25T05:44:12.069Z,25.14
2017-08-25T05:44:52.517Z,25.04
2017-08-25T05:45:32.972Z,25.06
2017-08-25T05:46:13.426Z,25
2017-08-25T05:46:53.898Z,25.01
2017-08-25T05:47:34.347Z,25.01
2017-08-25T05:48:14.798Z,25.01
2017-08-25T05:48:55.319Z,25.06
2017-08-25T05:49:35.697Z,25.04
2017-08-25T05:50:16.154Z,25.01
2017-08-25T05:50:56.617Z,25.06
2017-08-25T05:51:37.083Z,25.04
2017-08-25T05:52:17.535Z,25.09
2017-08-25T05:52:57.988Z,25.06
2017-08-25T05:53:38.441Z,25.04
2017-08-25T05:54:18.898Z,25.04
2017-08-25T05:54:59.354Z,25.01
2017-08-25T05:55:39.802Z,25
2017-08-25T05:56:20.260Z,25
2017-08-25T05:57:00.742Z,25.14
2017-08-25T05:57:41.189Z,25.12
2017-08-25T05:58:21.649Z,25.12
2017-08-25T05:59:02.106Z,25.09
2017-08-25T05:59:42.611Z,25.12
2017-08-25T06:00:23.065Z,25.12
2017-08-25T06:01:03.521Z,25.11
2017-08-25T06:01:43.975Z,25.16
2017-08-25T06:02:24.427Z,25.19
2017-08-25T06:03:04.887Z,25.11
2017-08-25T06:03:45.339Z,25.11
2017-08-25T06:04:25.790Z,25.15
2017-08-25T06:05:06.250Z,25.14
2017-08-25T06:05:46.708Z,25.16
2017-08-25T06:06:27.166Z,25.12
2017-08-25T06:07:07.618Z,25.14
2017-08-25T06:07:48.064Z,25.22
2017-08-25T06:08:28.515Z,25.18
2017-08-25T06:09:08.969Z,25.14
2017-08-25T06:09:49.418Z,25.16
2017-08-25T06:10:29.867Z,25.12
2017-08-25T06:11:10.351Z,25.19
2017-08-25T06:11:50.802Z,25.16
2017-08-25T06:12:31.252Z,25.22
2017-08-25T06:13:11.704Z,25.19
2017-08-25T06:13:52.163Z,25.21
2017-08-25T06:14:32.612Z,25.21
2017-08-25T06:15:13.070Z,25.25
2017-08-25T06:15:53.523Z,25.16
2017-08-25T06:16:33.984Z,25.19
2017-08-25T06:17:14.443Z,25.24
2017-08-25T06:17:54.901Z,25.21
2017-08-25T06:18:35.355Z,25.24
2017-08-25T06:19:15.795Z,25.24
2017-08-25T06:19:56.248Z,25.18
2017-08-25T06:20:36.712Z,25.21
2017-08-25T06:21:17.166Z,25.25
2017-08-25T06:21:57.622Z,25.21
2017-08-25T06:22:38.071Z,25.21
2017-08-25T06:23:18.513Z,25.18
2017-08-25T06:23:58.972Z,25.21
2017-08-25T06:24:39.426Z,25.24
2017-08-25T06:25:19.875Z,25.24
2017-08-25T06:26:00.327Z,25.21
2017-08-25T06:26:40.773Z,25.24
2017-08-25T06:27:21.219Z,25.24
2017-08-25T06:28:01.668Z,25.22
2017-08-25T06:28:42.132Z,25.19
2017-08-25T06:29:22.584Z,25.26
2017-08-25T06:30:03.030Z,25.24
2017-08-25T06:30:43.483Z,25.21
2017-08-25T06:31:23.939Z,25.22
2017-08-25T06:32:04.417Z,25.21
2017-08-25T06:32:44.845Z,25.24
2017-08-25T06:33:25.471Z,25.22
2017-08-25T06:34:05.927Z,25.25
2017-08-25T06:34:46.376Z,25.29
2017-08-25T06:35:26.832Z,25.25
2017-08-25T06:36:07.287Z,25.26
2017-08-25T06:36:47.732Z,25.25
2017-08-25T06:37:28.186Z,25.31
2017-08-25T06:38:08.625Z,25.29
2017-08-25T06:38:49.080Z,25.19
2017-08-25T06:39:29.530Z,25.21
2017-08-25T06:40:09.991Z,25.29
2017-08-25T06:40:50.445Z,25.26
2017-08-25T06:41:30.897Z,25.25
2017-08-25T06:42:11.355Z,25.29
2017-08-25T06:42:51.814Z,25.26
2017-08-25T06:43:32.270Z,25.25
2017-08-25T06:44:12.721Z,25.26
2017-08-25T06:44:53.185Z,25.36
2017-08-25T06:45:33.625Z,25.37
2017-08-25T06:46:14.079Z,25.36
2017-08-25T06:46:54.538Z,25.39
2017-08-25T06:47:34.996Z,25.33
2017-08-25T06:48:15.433Z,25.37
2017-08-25T06:48:55.885Z,25.33
2017-08-25T06:49:36.347Z,25.46
2017-08-25T06:50:16.806Z,25.44
2017-08-25T06:50:57.258Z,25.49
2017-08-25T06:51:37.705Z,25.51
2017-08-25T06:52:18.164Z,25.46
2017-08-25T06:52:58.623Z,25.43
2017-08-25T06:53:39.078Z,25.55
2017-08-25T06:54:19.534Z,25.55
2017-08-25T06:55:00.005Z,25.55
2017-08-25T06:55:40.444Z,25.56
2017-08-25T06:56:21.240Z,25.59
2017-08-25T06:57:01.706Z,25.67
2017-08-25T06:57:42.162Z,25.61
2017-08-25T06:58:22.612Z,25.63
2017-08-25T06:59:03.057Z,25.59
2017-08-25T06:59:43.518Z,25.59
2017-08-25T07:00:23.973Z,25.58
2017-08-25T07:01:04.427Z,25.63
2017-08-25T07:01:44.882Z,25.63
2017-08-25T07:02:25.336Z,25.63
2017-08-25T07:03:05.792Z,25.62
2017-08-25T07:03:46.240Z,25.63
2017-08-25T07:04:26.698Z,25.67
2017-08-25T07:05:07.157Z,25.58
2017-08-25T07:05:47.631Z,25.63
2017-08-25T07:06:28.089Z,25.71
2017-08-25T07:07:08.538Z,25.62
2017-08-25T07:07:48.997Z,25.68
2017-08-25T07:08:29.456Z,25.58
2017-08-25T07:09:09.914Z,25.63
2017-08-25T07:09:50.375Z,25.62
2017-08-25T07:10:30.832Z,25.59
2017-08-25T07:11:11.293Z,25.63
2017-08-25T07:11:51.746Z,25.66
2017-08-25T07:12:32.216Z,25.66
2017-08-25T07:13:12.677Z,25.66
2017-08-25T07:13:53.132Z,25.68
2017-08-25T07:14:34.335Z,25.7
2017-08-25T07:15:14.791Z,25.68
2017-08-25T07:15:55.239Z,25.61
2017-08-25T07:16:35.698Z,25.66
2017-08-25T07:17:16.139Z,25.77
2017-08-25T07:17:56.578Z,25.74
2017-08-25T07:18:37.031Z,25.7
2017-08-25T07:19:17.482Z,25.73
2017-08-25T07:19:57.948Z,25.76
2017-08-25T07:20:38.402Z,25.76
2017-08-25T07:21:18.849Z,25.7
2017-08-25T07:21:59.307Z,25.81
2017-08-25T07:22:39.759Z,25.74
2017-08-25T07:23:20.212Z,25.78
2017-08-25T07:24:00.667Z,25.83
2017-08-25T07:24:41.122Z,25.74
2017-08-25T07:25:21.575Z,25.83
2017-08-25T07:26:02.049Z,25.73
2017-08-25T07:26:42.500Z,25.78
2017-08-25T07:27:22.944Z,25.89
2017-08-25T07:28:03.397Z,25.85
2017-08-25T07:28:43.846Z,25.8
2017-08-25T07:29:24.303Z,25.81
2017-08-25T07:30:04.758Z,25.74
2017-08-25T07:30:45.205Z,25.8
2017-08-25T07:31:25.655Z,25.81
2017-08-25T07:32:06.103Z,25.86
2017-08-25T07:32:46.563Z,25.85
2017-08-25T07:33:27.008Z,25.86
2017-08-25T07:34:07.456Z,25.88
2017-08-25T07:34:47.904Z,25.86
2017-08-25T07:35:28.366Z,25.8
2017-08-25T07:36:08.819Z,25.88
2017-08-25T07:36:49.267Z,25.91
2017-08-25T07:37:29.726Z,25.92
2017-08-25T07:38:10.195Z,25.83
2017-08-25T07:38:50.672Z,25.8
2017-08-25T07:39:31.120Z,25.81
2017-08-25T07:40:11.572Z,25.83
2017-08-25T07:40:52.691Z,25.81
2017-08-25T07:41:33.440Z,25.8
2017-08-25T07:42:14.706Z,25.85
2017-08-25T07:42:55.004Z,25.81
2017-08-25T07:43:35.748Z,25.88
2017-08-25T07:44:16.152Z,25.8
2017-08-25T07:44:56.619Z,25.85
2017-08-25T07:45:36.992Z,25.8
2017-08-25T07:46:17.440Z,25.85
2017-08-25T07:46:57.900Z,25.83
2017-08-25T07:47:38.357Z,25.81
2017-08-25T07:48:18.864Z,25.85
2017-08-25T07:48:59.322Z,25.76
2017-08-25T07:49:39.862Z,25.83
2017-08-25T07:50:20.391Z,25.86
2017-08-25T07:51:00.856Z,25.77
2017-08-25T07:51:41.303Z,25.8
2017-08-25T07:52:21.768Z,25.78
2017-08-25T07:53:02.211Z,25.83
2017-08-25T07:53:42.681Z,25.81
2017-08-25T07:54:23.265Z,25.83
2017-08-25T07:55:03.711Z,25.83
2017-08-25T07:55:44.249Z,25.81
2017-08-25T07:56:24.922Z,25.78
2017-08-25T07:57:05.378Z,25.76
2017-08-25T07:57:45.854Z,25.86
2017-08-25T07:58:26.304Z,25.78
2017-08-25T07:59:06.819Z,25.91
2017-08-25T07:59:47.270Z,25.8
2017-08-25T08:00:27.740Z,25.85
2017-08-25T08:01:08.183Z,25.91
2017-08-25T08:01:48.642Z,25.86
2017-08-25T08:02:29.211Z,25.85
2017-08-25T08:03:09.676Z,25.91
2017-08-25T08:03:50.461Z,25.78
2017-08-25T08:04:30.924Z,25.88
2017-08-25T08:05:11.376Z,25.86
2017-08-25T08:05:51.835Z,25.89
2017-08-25T08:06:32.289Z,25.91
2017-08-25T08:07:12.757Z,25.86
2017-08-25T08:07:53.343Z,25.96
2017-08-25T08:08:33.721Z,25.92
2017-08-25T08:09:14.178Z,25.98
2017-08-25T08:09:54.786Z,25.98
2017-08-25T08:10:35.679Z,25.95
2017-08-25T08:11:16.118Z,26.01
2017-08-25T08:11:56.573Z,25.98
2017-08-25T08:12:37.043Z,25.98
2017-08-25T08:13:17.509Z,26.07
2017-08-25T08:13:57.974Z,26.1
2017-08-25T08:14:38.423Z,25.99
2017-08-25T08:15:18.879Z,25.99
2017-08-25T08:15:59.333Z,25.99
2017-08-25T08:16:39.803Z,26.11
2017-08-25T08:17:20.358Z,26.15
2017-08-25T08:18:00.819Z,26.16
2017-08-25T08:18:41.284Z,26.18
2017-08-25T08:19:21.876Z,26.29
2017-08-25T08:20:02.264Z,26.26
2017-08-25T08:20:42.706Z,26.23
2017-08-25T08:21:23.291Z,26.24
2017-08-25T08:22:03.765Z,26.24
2017-08-25T08:22:44.222Z,26.24
2017-08-25T08:23:24.865Z,26.23
2017-08-25T08:24:05.738Z,26.29
2017-08-25T08:24:46.532Z,26.27
2017-08-25T08:25:26.986Z,26.27
2017-08-25T08:26:07.441Z,26.23
2017-08-25T08:26:48.756Z,26.3
2017-08-25T08:27:29.458Z,26.29
2017-08-25T08:28:09.868Z,26.29
2017-08-25T08:28:50.335Z,26.26
2017-08-25T08:29:30.793Z,26.3
2017-08-25T08:30:11.239Z,26.24
2017-08-25T08:30:51.692Z,26.24
2017-08-25T08:31:32.444Z,26.23
2017-08-25T08:32:12.917Z,26.29
2017-08-25T08:32:53.467Z,26.26
2017-08-25T08:33:33.921Z,26.3
2017-08-25T08:34:14.372Z,26.24
2017-08-25T08:34:54.816Z,26.26
2017-08-25T08:35:35.265Z,26.33
2017-08-25T08:37:32.986Z,26.27
2017-08-25T08:38:13.448Z,26.33
2017-08-25T08:38:53.903Z,26.24
2017-08-25T08:39:34.362Z,26.29
2017-08-25T08:40:14.815Z,26.34
2017-08-25T08:40:55.310Z,26.26
2017-08-25T08:41:35.778Z,26.27
2017-08-25T08:42:16.235Z,26.31
2017-08-25T08:42:56.691Z,26.39
2017-08-25T08:43:37.157Z,26.26
2017-08-25T08:44:17.613Z,26.3
2017-08-25T08:44:58.061Z,26.29
2017-08-25T08:45:38.511Z,26.31
2017-08-25T08:46:18.973Z,26.34
2017-08-25T08:46:59.423Z,26.33
2017-08-25T08:47:39.881Z,26.34
2017-08-25T08:48:20.333Z,26.33
2017-08-25T08:49:00.801Z,26.36
2017-08-25T08:49:41.273Z,26.41
2017-08-25T08:50:21.722Z,26.39
2017-08-25T08:51:02.170Z,26.48